sensor_id;sensor_type;location;lat;lon;timestamp;pressure;altitude;pressure_sealevel;temperature;humidity
10466;BME280;5280;42.600;23.556;2023-04-27T00:00:58;93083.25;;;7.42;75.36
10466;BME280;5280;42.600;23.556;2023-04-27T00:03:25;93088.38;;;7.43;74.37
10466;BME280;5280;42.600;23.556;2023-04-27T00:05:52;93082.41;;;7.41;73.52
10466;BME280;5280;42.600;23.556;2023-04-27T00:08:19;93093.63;;;7.43;72.57
10466;BME280;5280;42.600;23.556;2023-04-27T00:10:47;93044.56;;;7.07;72.44
10466;BME280;5280;42.600;23.556;2023-04-27T00:13:16;93068.44;;;7.28;73.66
10466;BME280;5280;42.600;23.556;2023-04-27T00:15:43;93035.72;;;7.08;73.91
10466;BME280;5280;42.600;23.556;2023-04-27T00:18:11;93071.09;;;7.28;74.87
10466;BME280;5280;42.600;23.556;2023-04-27T00:20:37;93095.31;;;7.44;74.15
10466;BME280;5280;42.600;23.556;2023-04-27T00:23:05;93086.00;;;7.27;73.20
10466;BME280;5280;42.600;23.556;2023-04-27T00:25:32;93089.59;;;7.26;75.21
10466;BME280;5280;42.600;23.556;2023-04-27T00:28:03;93104.38;;;7.40;71.89
10466;BME280;5280;42.600;23.556;2023-04-27T00:30:29;93099.28;;;7.26;74.61
10466;BME280;5280;42.600;23.556;2023-04-27T00:32:56;93111.84;;;7.33;72.18
10466;BME280;5280;42.600;23.556;2023-04-27T00:35:23;93099.38;;;7.24;71.15
10466;BME280;5280;42.600;23.556;2023-04-27T00:37:50;93109.56;;;7.29;73.13
10466;BME280;5280;42.600;23.556;2023-04-27T00:40:21;93023.44;;;6.72;71.78
10466;BME280;5280;42.600;23.556;2023-04-27T00:42:48;93109.66;;;7.27;71.74
10466;BME280;5280;42.600;23.556;2023-04-27T00:45:16;93111.34;;;7.28;71.45
10466;BME280;5280;42.600;23.556;2023-04-27T00:47:43;93117.03;;;7.22;72.30
10466;BME280;5280;42.600;23.556;2023-04-27T00:50:10;93097.72;;;7.11;72.17
10466;BME280;5280;42.600;23.556;2023-04-27T00:52:38;93114.84;;;7.16;71.21
10466;BME280;5280;42.600;23.556;2023-04-27T00:55:06;93114.63;;;7.19;71.79
10466;BME280;5280;42.600;23.556;2023-04-27T00:57:33;93116.75;;;7.14;70.86
10466;BME280;5280;42.600;23.556;2023-04-27T00:59:59;93116.75;;;7.14;71.67
10466;BME280;5280;42.600;23.556;2023-04-27T01:02:28;93114.34;;;7.11;69.85
10466;BME280;5280;42.600;23.556;2023-04-27T01:04:55;93128.31;;;7.12;69.24
10466;BME280;5280;42.600;23.556;2023-04-27T01:07:24;93123.06;;;7.12;69.62
10466;BME280;5280;42.600;23.556;2023-04-27T01:09:51;93122.41;;;7.08;70.41
10466;BME280;5280;42.600;23.556;2023-04-27T01:12:18;93118.88;;;6.97;70.20
10466;BME280;5280;42.600;23.556;2023-04-27T01:14:45;93084.25;;;6.66;70.69
10466;BME280;5280;42.600;23.556;2023-04-27T01:17:11;93133.16;;;7.05;69.71
10466;BME280;5280;42.600;23.556;2023-04-27T01:19:39;93065.75;;;6.55;70.62
10466;BME280;5280;42.600;23.556;2023-04-27T01:22:10;93116.78;;;6.89;70.39
10466;BME280;5280;42.600;23.556;2023-04-27T01:24:38;93058.44;;;6.47;71.17
10466;BME280;5280;42.600;23.556;2023-04-27T01:27:05;93118.47;;;6.77;71.17
10466;BME280;5280;42.600;23.556;2023-04-27T01:29:32;93114.56;;;6.83;70.20
10466;BME280;5280;42.600;23.556;2023-04-27T01:32:01;93126.66;;;6.85;70.26
10466;BME280;5280;42.600;23.556;2023-04-27T01:34:27;93123.75;;;6.77;69.68
10466;BME280;5280;42.600;23.556;2023-04-27T01:36:54;93099.66;;;6.58;70.06
10466;BME280;5280;42.600;23.556;2023-04-27T01:39:23;93137.25;;;6.84;70.96
10466;BME280;5280;42.600;23.556;2023-04-27T01:41:52;93132.94;;;6.83;69.44
10466;BME280;5280;42.600;23.556;2023-04-27T01:44:18;93130.66;;;6.78;70.24
10466;BME280;5280;42.600;23.556;2023-04-27T01:46:47;93056.72;;;6.34;70.27
10466;BME280;5280;42.600;23.556;2023-04-27T01:49:14;93073.53;;;6.44;70.12
10466;BME280;5280;42.600;23.556;2023-04-27T01:51:41;93112.38;;;6.64;69.74
10466;BME280;5280;42.600;23.556;2023-04-27T01:54:07;93123.41;;;6.69;68.57
10466;BME280;5280;42.600;23.556;2023-04-27T01:56:34;93126.66;;;6.60;69.02
10466;BME280;5280;42.600;23.556;2023-04-27T01:59:02;93132.13;;;6.57;71.79
10466;BME280;5280;42.600;23.556;2023-04-27T02:01:29;93135.69;;;6.56;69.65
10466;BME280;5280;42.600;23.556;2023-04-27T02:03:56;93142.81;;;6.54;69.06
10466;BME280;5280;42.600;23.556;2023-04-27T02:06:23;93154.38;;;6.52;69.73
10466;BME280;5280;42.600;23.556;2023-04-27T02:08:50;93135.03;;;6.40;69.45
10466;BME280;5280;42.600;23.556;2023-04-27T02:11:17;93132.72;;;6.48;69.94
10466;BME280;5280;42.600;23.556;2023-04-27T02:13:43;93133.16;;;6.42;70.28
10466;BME280;5280;42.600;23.556;2023-04-27T02:16:12;93136.94;;;6.51;71.10
10466;BME280;5280;42.600;23.556;2023-04-27T02:18:39;93131.25;;;6.44;69.45
10466;BME280;5280;42.600;23.556;2023-04-27T02:21:07;93135.47;;;6.46;67.18
10466;BME280;5280;42.600;23.556;2023-04-27T02:23:35;93140.28;;;6.40;69.81
10466;BME280;5280;42.600;23.556;2023-04-27T02:26:01;93113.06;;;6.16;70.17
10466;BME280;5280;42.600;23.556;2023-04-27T02:28:28;93139.00;;;6.33;69.69
10466;BME280;5280;42.600;23.556;2023-04-27T02:30:55;93139.75;;;6.35;69.39
10466;BME280;5280;42.600;23.556;2023-04-27T02:33:23;93143.00;;;6.38;69.20
10466;BME280;5280;42.600;23.556;2023-04-27T02:35:50;93152.56;;;6.27;69.28
10466;BME280;5280;42.600;23.556;2023-04-27T02:38:16;93147.19;;;6.28;68.06
10466;BME280;5280;42.600;23.556;2023-04-27T02:40:43;93140.78;;;6.20;68.67
10466;BME280;5280;42.600;23.556;2023-04-27T02:43:10;93142.47;;;6.21;70.15
10466;BME280;5280;42.600;23.556;2023-04-27T02:45:37;93139.22;;;6.17;69.64
10466;BME280;5280;42.600;23.556;2023-04-27T02:48:04;93153.75;;;6.09;69.94
10466;BME280;5280;42.600;23.556;2023-04-27T02:50:32;93136.41;;;5.93;69.71
10466;BME280;5280;42.600;23.556;2023-04-27T02:52:59;93158.28;;;6.07;69.31
10466;BME280;5280;42.600;23.556;2023-04-27T02:55:25;93109.69;;;5.74;71.47
10466;BME280;5280;42.600;23.556;2023-04-27T02:57:54;93090.75;;;5.56;69.04
10466;BME280;5280;42.600;23.556;2023-04-27T03:00:21;93164.84;;;5.99;70.42
10466;BME280;5280;42.600;23.556;2023-04-27T03:02:48;93159.28;;;5.91;69.91
10466;BME280;5280;42.600;23.556;2023-04-27T03:05:15;93161.69;;;5.94;69.94
10466;BME280;5280;42.600;23.556;2023-04-27T03:07:43;93166.31;;;5.91;68.92
10466;BME280;5280;42.600;23.556;2023-04-27T03:10:10;93167.03;;;5.93;69.52
10466;BME280;5280;42.600;23.556;2023-04-27T03:12:37;93165.94;;;5.83;70.96
10466;BME280;5280;42.600;23.556;2023-04-27T03:15:04;93162.09;;;5.74;69.59
10466;BME280;5280;42.600;23.556;2023-04-27T03:17:32;93184.03;;;5.87;68.88
10466;BME280;5280;42.600;23.556;2023-04-27T03:19:59;93158.56;;;5.75;68.73
10466;BME280;5280;42.600;23.556;2023-04-27T03:22:26;93147.34;;;5.59;69.17
10466;BME280;5280;42.600;23.556;2023-04-27T03:24:54;93181.84;;;5.80;70.23
10466;BME280;5280;42.600;23.556;2023-04-27T03:27:21;93200.75;;;5.85;70.79
10466;BME280;5280;42.600;23.556;2023-04-27T03:29:50;93174.28;;;5.75;69.75
10466;BME280;5280;42.600;23.556;2023-04-27T03:32:17;93147.50;;;5.43;71.27
10466;BME280;5280;42.600;23.556;2023-04-27T03:34:44;93188.03;;;5.79;69.93
10466;BME280;5280;42.600;23.556;2023-04-27T03:37:11;93187.41;;;5.75;70.46
10466;BME280;5280;42.600;23.556;2023-04-27T03:39:38;93190.22;;;5.72;70.88
10466;BME280;5280;42.600;23.556;2023-04-27T03:42:06;93194.63;;;5.72;73.68
10466;BME280;5280;42.600;23.556;2023-04-27T03:44:33;93197.13;;;5.73;71.03
10466;BME280;5280;42.600;23.556;2023-04-27T03:47:00;93191.88;;;5.73;72.51
10466;BME280;5280;42.600;23.556;2023-04-27T03:49:28;93192.84;;;5.72;71.16
10466;BME280;5280;42.600;23.556;2023-04-27T03:51:54;93204.06;;;5.74;71.52
10466;BME280;5280;42.600;23.556;2023-04-27T03:54:21;93200.50;;;5.75;70.97
10466;BME280;5280;42.600;23.556;2023-04-27T03:56:48;93199.88;;;5.72;71.55
10466;BME280;5280;42.600;23.556;2023-04-27T03:59:16;93185.28;;;5.68;71.01
10466;BME280;5280;42.600;23.556;2023-04-27T04:01:43;93185.44;;;5.64;72.15
10466;BME280;5280;42.600;23.556;2023-04-27T04:04:10;93198.19;;;5.71;71.16
10466;BME280;5280;42.600;23.556;2023-04-27T04:06:36;93194.63;;;5.72;70.29
10466;BME280;5280;42.600;23.556;2023-04-27T04:09:03;93206.69;;;5.74;71.62
10466;BME280;5280;42.600;23.556;2023-04-27T04:11:30;93230.94;;;5.92;69.60
10466;BME280;5280;42.600;23.556;2023-04-27T04:13:57;93220.53;;;5.90;70.49
10466;BME280;5280;42.600;23.556;2023-04-27T04:16:25;93220.25;;;5.95;71.45
10466;BME280;5280;42.600;23.556;2023-04-27T04:18:51;93223.69;;;5.95;70.10
10466;BME280;5280;42.600;23.556;2023-04-27T04:21:18;93196.09;;;5.76;69.68
10466;BME280;5280;42.600;23.556;2023-04-27T04:23:45;93235.03;;;5.96;69.10
10466;BME280;5280;42.600;23.556;2023-04-27T04:26:13;93223.50;;;5.84;69.25
10466;BME280;5280;42.600;23.556;2023-04-27T04:28:39;93230.53;;;5.84;71.52
10466;BME280;5280;42.600;23.556;2023-04-27T04:31:06;93239.66;;;5.92;70.77
10466;BME280;5280;42.600;23.556;2023-04-27T04:33:35;93229.03;;;5.94;68.74
10466;BME280;5280;42.600;23.556;2023-04-27T04:36:02;93246.00;;;6.02;70.29
10466;BME280;5280;42.600;23.556;2023-04-27T04:38:29;93243.38;;;6.02;71.03
10466;BME280;5280;42.600;23.556;2023-04-27T04:40:57;93235.69;;;5.99;70.02
10466;BME280;5280;42.600;23.556;2023-04-27T04:43:24;93205.75;;;5.75;68.53
10466;BME280;5280;42.600;23.556;2023-04-27T04:45:51;93248.56;;;6.17;66.98
10466;BME280;5280;42.600;23.556;2023-04-27T04:48:18;93245.69;;;6.07;68.49
10466;BME280;5280;42.600;23.556;2023-04-27T04:50:46;93246.00;;;6.02;67.61
10466;BME280;5280;42.600;23.556;2023-04-27T04:53:13;93226.72;;;5.89;69.56
10466;BME280;5280;42.600;23.556;2023-04-27T04:55:40;93266.47;;;6.10;67.40
10466;BME280;5280;42.600;23.556;2023-04-27T04:58:07;93265.44;;;6.13;67.29
10466;BME280;5280;42.600;23.556;2023-04-27T05:00:36;93262.53;;;6.17;68.47
10466;BME280;5280;42.600;23.556;2023-04-27T05:03:03;93267.34;;;6.23;68.45
10466;BME280;5280;42.600;23.556;2023-04-27T05:05:31;93262.69;;;6.14;68.63
10466;BME280;5280;42.600;23.556;2023-04-27T05:07:59;93267.66;;;6.19;67.73
10466;BME280;5280;42.600;23.556;2023-04-27T05:10:26;93274.38;;;6.23;70.97
10466;BME280;5280;42.600;23.556;2023-04-27T05:12:53;93294.81;;;6.32;69.42
10466;BME280;5280;42.600;23.556;2023-04-27T05:15:20;93286.44;;;6.39;69.19
10466;BME280;5280;42.600;23.556;2023-04-27T05:17:47;93282.41;;;6.34;69.08
10466;BME280;5280;42.600;23.556;2023-04-27T05:20:14;93288.03;;;6.42;68.71
10466;BME280;5280;42.600;23.556;2023-04-27T05:22:40;93288.88;;;6.42;68.87
10466;BME280;5280;42.600;23.556;2023-04-27T05:25:09;93278.22;;;6.31;67.09
10466;BME280;5280;42.600;23.556;2023-04-27T05:27:36;93304.31;;;6.47;68.40
10466;BME280;5280;42.600;23.556;2023-04-27T05:30:03;93297.28;;;6.47;69.40
10466;BME280;5280;42.600;23.556;2023-04-27T05:32:30;93290.22;;;6.48;67.35
10466;BME280;5280;42.600;23.556;2023-04-27T05:34:58;93291.53;;;6.55;67.65
10466;BME280;5280;42.600;23.556;2023-04-27T05:37:24;93253.50;;;6.21;67.75
10466;BME280;5280;42.600;23.556;2023-04-27T05:39:51;93305.59;;;6.54;68.12
10466;BME280;5280;42.600;23.556;2023-04-27T05:42:19;93291.91;;;6.49;68.46
10466;BME280;5280;42.600;23.556;2023-04-27T05:44:46;93279.63;;;6.49;67.28
10466;BME280;5280;42.600;23.556;2023-04-27T05:47:13;93286.47;;;6.52;67.93
10466;BME280;5280;42.600;23.556;2023-04-27T05:49:40;93296.78;;;6.55;67.23
10466;BME280;5280;42.600;23.556;2023-04-27T05:52:07;93291.72;;;6.52;66.90
10466;BME280;5280;42.600;23.556;2023-04-27T05:54:34;93300.16;;;6.57;65.96
10466;BME280;5280;42.600;23.556;2023-04-27T05:57:01;93298.47;;;6.56;67.38
10466;BME280;5280;42.600;23.556;2023-04-27T05:59:29;93299.09;;;6.60;66.77
10466;BME280;5280;42.600;23.556;2023-04-27T06:01:55;93273.00;;;6.44;69.49
10466;BME280;5280;42.600;23.556;2023-04-27T06:04:22;93284.41;;;6.57;67.52
10466;BME280;5280;42.600;23.556;2023-04-27T06:06:49;93301.25;;;6.67;66.66
10466;BME280;5280;42.600;23.556;2023-04-27T06:09:16;93306.38;;;6.69;67.04
10466;BME280;5280;42.600;23.556;2023-04-27T06:11:43;93310.22;;;6.63;65.26
10466;BME280;5280;42.600;23.556;2023-04-27T06:14:11;93309.13;;;6.67;67.21
10466;BME280;5280;42.600;23.556;2023-04-27T06:16:39;93298.88;;;6.63;67.72
10466;BME280;5280;42.600;23.556;2023-04-27T06:19:06;93288.09;;;6.67;66.98
10466;BME280;5280;42.600;23.556;2023-04-27T06:21:34;93280.50;;;6.63;66.28
10466;BME280;5280;42.600;23.556;2023-04-27T06:24:02;93310.91;;;6.79;66.82
10466;BME280;5280;42.600;23.556;2023-04-27T06:26:29;93265.50;;;6.65;65.95
10466;BME280;5280;42.600;23.556;2023-04-27T06:28:56;93296.72;;;6.69;65.74
10466;BME280;5280;42.600;23.556;2023-04-27T06:31:23;93242.97;;;6.48;66.96
10466;BME280;5280;42.600;23.556;2023-04-27T06:33:51;93303.25;;;6.89;66.76
10466;BME280;5280;42.600;23.556;2023-04-27T06:36:18;93309.81;;;6.96;65.23
10466;BME280;5280;42.600;23.556;2023-04-27T06:38:45;93312.94;;;6.88;67.49
10466;BME280;5280;42.600;23.556;2023-04-27T06:41:12;93306.03;;;7.00;66.92
10466;BME280;5280;42.600;23.556;2023-04-27T06:43:38;93312.97;;;7.01;67.37
10466;BME280;5280;42.600;23.556;2023-04-27T06:46:05;93309.63;;;7.12;65.53
10466;BME280;5280;42.600;23.556;2023-04-27T06:48:32;93304.16;;;7.15;69.11
10466;BME280;5280;42.600;23.556;2023-04-27T06:51:00;93304.16;;;7.27;66.85
10466;BME280;5280;42.600;23.556;2023-04-27T06:53:27;93284.63;;;7.31;67.98
10466;BME280;5280;42.600;23.556;2023-04-27T06:55:54;93302.38;;;7.53;65.97
10466;BME280;5280;42.600;23.556;2023-04-27T06:58:21;93279.03;;;7.61;69.02
10466;BME280;5280;42.600;23.556;2023-04-27T07:00:48;93301.19;;;7.95;66.43
10466;BME280;5280;42.600;23.556;2023-04-27T07:03:15;93255.53;;;7.84;63.63
10466;BME280;5280;42.600;23.556;2023-04-27T07:05:42;93300.06;;;8.23;62.55
10466;BME280;5280;42.600;23.556;2023-04-27T07:08:10;93271.34;;;8.20;65.98
10466;BME280;5280;42.600;23.556;2023-04-27T07:10:37;93291.34;;;8.59;65.30
10466;BME280;5280;42.600;23.556;2023-04-27T07:13:05;93220.25;;;8.22;65.45
10466;BME280;5280;42.600;23.556;2023-04-27T07:15:32;93285.34;;;8.92;63.16
10466;BME280;5280;42.600;23.556;2023-04-27T07:17:59;93284.09;;;9.08;61.96
10466;BME280;5280;42.600;23.556;2023-04-27T07:20:25;93283.91;;;9.23;62.14
10466;BME280;5280;42.600;23.556;2023-04-27T07:22:52;93285.03;;;9.31;60.04
10466;BME280;5280;42.600;23.556;2023-04-27T07:25:20;93285.03;;;9.42;59.08
10466;BME280;5280;42.600;23.556;2023-04-27T07:27:47;93280.97;;;9.49;60.91
10466;BME280;5280;42.600;23.556;2023-04-27T07:30:15;93277.16;;;9.65;56.05
10466;BME280;5280;42.600;23.556;2023-04-27T07:32:42;93235.88;;;9.52;58.48
10466;BME280;5280;42.600;23.556;2023-04-27T07:35:10;93275.25;;;10.00;58.26
10466;BME280;5280;42.600;23.556;2023-04-27T07:37:37;93285.69;;;10.24;54.48
10466;BME280;5280;42.600;23.556;2023-04-27T07:40:05;93279.56;;;10.34;56.67
10466;BME280;5280;42.600;23.556;2023-04-27T07:42:44;93280.13;;;10.49;55.63
10466;BME280;5280;42.600;23.556;2023-04-27T07:45:11;93265.31;;;10.58;54.06
10466;BME280;5280;42.600;23.556;2023-04-27T07:47:38;93278.94;;;10.85;53.33
10466;BME280;5280;42.600;23.556;2023-04-27T07:50:06;93278.84;;;11.07;54.30
10466;BME280;5280;42.600;23.556;2023-04-27T07:52:33;93279.13;;;11.25;51.57
10466;BME280;5280;42.600;23.556;2023-04-27T07:55:00;93212.47;;;10.90;53.60
10466;BME280;5280;42.600;23.556;2023-04-27T07:57:28;93263.56;;;11.32;50.49
10466;BME280;5280;42.600;23.556;2023-04-27T07:59:57;93273.78;;;11.78;51.49
10466;BME280;5280;42.600;23.556;2023-04-27T08:02:25;93276.03;;;11.82;51.35
10466;BME280;5280;42.600;23.556;2023-04-27T08:04:54;93268.81;;;11.84;49.64
10466;BME280;5280;42.600;23.556;2023-04-27T08:07:21;93270.53;;;11.95;51.20
10466;BME280;5280;42.600;23.556;2023-04-27T08:09:49;93273.34;;;12.03;49.98
10466;BME280;5280;42.600;23.556;2023-04-27T08:12:16;93250.47;;;12.02;48.44
10466;BME280;5280;42.600;23.556;2023-04-27T08:14:43;93261.16;;;12.21;47.48
10466;BME280;5280;42.600;23.556;2023-04-27T08:17:12;93263.09;;;12.19;49.64
10466;BME280;5280;42.600;23.556;2023-04-27T08:19:39;93269.09;;;12.21;47.90
10466;BME280;5280;42.600;23.556;2023-04-27T08:22:06;93213.69;;;11.99;47.28
10466;BME280;5280;42.600;23.556;2023-04-27T08:24:33;93264.50;;;12.23;48.10
10466;BME280;5280;42.600;23.556;2023-04-27T08:27:00;93242.13;;;12.06;49.10
10466;BME280;5280;42.600;23.556;2023-04-27T08:29:28;93271.78;;;12.31;47.70
10466;BME280;5280;42.600;23.556;2023-04-27T08:31:58;93264.53;;;12.33;50.22
10466;BME280;5280;42.600;23.556;2023-04-27T08:34:27;93264.69;;;12.41;47.62
10466;BME280;5280;42.600;23.556;2023-04-27T08:36:55;93270.19;;;12.59;45.27
10466;BME280;5280;42.600;23.556;2023-04-27T08:39:22;93272.16;;;12.76;45.82
10466;BME280;5280;42.600;23.556;2023-04-27T08:41:49;93264.81;;;12.89;46.46
10466;BME280;5280;42.600;23.556;2023-04-27T08:44:17;93272.78;;;12.99;47.93
10466;BME280;5280;42.600;23.556;2023-04-27T08:46:44;93267.78;;;13.15;42.18
10466;BME280;5280;42.600;23.556;2023-04-27T08:49:11;93261.66;;;13.14;45.07
10466;BME280;5280;42.600;23.556;2023-04-27T08:51:39;93272.94;;;13.16;44.70
10466;BME280;5280;42.600;23.556;2023-04-27T08:54:07;93264.31;;;13.14;43.61
10466;BME280;5280;42.600;23.556;2023-04-27T08:56:34;93268.22;;;13.20;45.79
10466;BME280;5280;42.600;23.556;2023-04-27T08:59:01;93260.22;;;13.49;43.85
10466;BME280;5280;42.600;23.556;2023-04-27T09:01:29;93260.63;;;13.54;42.41
10466;BME280;5280;42.600;23.556;2023-04-27T09:03:57;93264.94;;;13.74;45.95
10466;BME280;5280;42.600;23.556;2023-04-27T09:06:28;93254.97;;;13.86;42.81
10466;BME280;5280;42.600;23.556;2023-04-27T09:08:57;93268.19;;;14.05;45.17
10466;BME280;5280;42.600;23.556;2023-04-27T09:11:29;93260.59;;;14.10;43.01
10466;BME280;5280;42.600;23.556;2023-04-27T09:13:57;93257.38;;;14.16;44.71
10466;BME280;5280;42.600;23.556;2023-04-27T09:16:26;93261.19;;;14.13;42.89
10466;BME280;5280;42.600;23.556;2023-04-27T09:18:54;93201.22;;;13.64;42.03
10466;BME280;5280;42.600;23.556;2023-04-27T09:21:22;93255.50;;;13.99;41.89
10466;BME280;5280;42.600;23.556;2023-04-27T09:23:49;93249.34;;;13.98;40.14
10466;BME280;5280;42.600;23.556;2023-04-27T09:26:20;93239.72;;;13.88;41.93
10466;BME280;5280;42.600;23.556;2023-04-27T09:28:49;93251.19;;;13.88;42.58
10466;BME280;5280;42.600;23.556;2023-04-27T09:31:17;93253.72;;;13.80;41.22
10466;BME280;5280;42.600;23.556;2023-04-27T09:33:45;93257.53;;;13.68;45.12
10466;BME280;5280;42.600;23.556;2023-04-27T09:36:12;93240.38;;;13.53;43.79
10466;BME280;5280;42.600;23.556;2023-04-27T09:38:39;93245.69;;;13.53;42.17
10466;BME280;5280;42.600;23.556;2023-04-27T09:41:07;93236.97;;;13.60;44.08
10466;BME280;5280;42.600;23.556;2023-04-27T09:43:36;93213.13;;;13.41;43.10
10466;BME280;5280;42.600;23.556;2023-04-27T09:46:03;93243.72;;;13.45;44.62
10466;BME280;5280;42.600;23.556;2023-04-27T09:48:30;93230.91;;;13.21;45.45
10466;BME280;5280;42.600;23.556;2023-04-27T09:50:56;93235.09;;;13.33;43.09
10466;BME280;5280;42.600;23.556;2023-04-27T09:53:28;93243.75;;;13.26;44.18
10466;BME280;5280;42.600;23.556;2023-04-27T09:56:07;93238.31;;;13.18;44.30
10466;BME280;5280;42.600;23.556;2023-04-27T09:58:54;93232.28;;;13.16;46.03
10466;BME280;5280;42.600;23.556;2023-04-27T10:01:29;93216.94;;;13.10;44.80
10466;BME280;5280;42.600;23.556;2023-04-27T10:04:11;93237.03;;;13.22;44.69
10466;BME280;5280;42.600;23.556;2023-04-27T10:06:57;93230.91;;;13.12;42.12
10466;BME280;5280;42.600;23.556;2023-04-27T10:09:25;93230.91;;;13.12;44.29
10466;BME280;5280;42.600;23.556;2023-04-27T10:11:53;93238.97;;;13.10;44.10
10466;BME280;5280;42.600;23.556;2023-04-27T10:14:23;93241.53;;;13.12;43.74
10466;BME280;5280;42.600;23.556;2023-04-27T10:16:52;93188.31;;;12.84;45.06
10466;BME280;5280;42.600;23.556;2023-04-27T10:19:19;93237.88;;;13.03;45.94
10466;BME280;5280;42.600;23.556;2023-04-27T10:21:56;93237.31;;;13.09;44.46
10466;BME280;5280;42.600;23.556;2023-04-27T10:24:33;93239.56;;;13.04;44.62
10466;BME280;5280;42.600;23.556;2023-04-27T10:27:02;93239.81;;;13.01;46.02
10466;BME280;5280;42.600;23.556;2023-04-27T10:29:41;93233.66;;;13.01;45.66
10466;BME280;5280;42.600;23.556;2023-04-27T10:32:11;93173.22;;;12.56;43.93
10466;BME280;5280;42.600;23.556;2023-04-27T10:34:38;93218.31;;;12.94;45.27
10466;BME280;5280;42.600;23.556;2023-04-27T10:37:07;93225.88;;;12.99;45.63
10466;BME280;5280;42.600;23.556;2023-04-27T10:39:35;93225.56;;;13.02;45.96
10466;BME280;5280;42.600;23.556;2023-04-27T10:42:03;93212.19;;;12.84;45.49
10466;BME280;5280;42.600;23.556;2023-04-27T10:44:31;93224.88;;;13.10;45.93
10466;BME280;5280;42.600;23.556;2023-04-27T10:47:01;93219.00;;;13.25;45.07
10466;BME280;5280;42.600;23.556;2023-04-27T10:49:37;93213.03;;;13.14;45.00
10466;BME280;5280;42.600;23.556;2023-04-27T10:52:04;93213.59;;;13.17;44.26
10466;BME280;5280;42.600;23.556;2023-04-27T10:54:31;93213.28;;;13.11;45.26
10466;BME280;5280;42.600;23.556;2023-04-27T10:57:03;93236.06;;;13.23;45.13
10466;BME280;5280;42.600;23.556;2023-04-27T10:59:30;93226.72;;;13.19;44.33
10466;BME280;5280;42.600;23.556;2023-04-27T11:01:56;93228.94;;;13.33;45.51
10466;BME280;5280;42.600;23.556;2023-04-27T11:04:34;93233.41;;;13.42;44.16
10466;BME280;5280;42.600;23.556;2023-04-27T11:07:01;93224.75;;;13.30;43.30
10466;BME280;5280;42.600;23.556;2023-04-27T11:09:29;93192.03;;;13.11;42.64
10466;BME280;5280;42.600;23.556;2023-04-27T11:11:55;93212.06;;;13.15;44.33
10466;BME280;5280;42.600;23.556;2023-04-27T11:14:22;93215.69;;;13.23;45.44
10466;BME280;5280;42.600;23.556;2023-04-27T11:16:49;93196.66;;;13.38;45.22
10466;BME280;5280;42.600;23.556;2023-04-27T11:19:16;93228.03;;;13.61;43.92
10466;BME280;5280;42.600;23.556;2023-04-27T11:21:44;93214.75;;;13.71;45.10
10466;BME280;5280;42.600;23.556;2023-04-27T11:24:11;93216.13;;;13.85;42.26
10466;BME280;5280;42.600;23.556;2023-04-27T11:26:38;93227.19;;;13.70;40.79
10466;BME280;5280;42.600;23.556;2023-04-27T11:29:06;93223.72;;;13.60;43.16
10466;BME280;5280;42.600;23.556;2023-04-27T11:31:39;93206.28;;;13.48;42.42
10466;BME280;5280;42.600;23.556;2023-04-27T11:34:07;93231.53;;;13.62;42.28
10466;BME280;5280;42.600;23.556;2023-04-27T11:36:34;93223.06;;;13.49;43.84
10466;BME280;5280;42.600;23.556;2023-04-27T11:39:03;93176.13;;;13.11;43.24
10466;BME280;5280;42.600;23.556;2023-04-27T11:41:32;93221.78;;;13.53;44.66
10466;BME280;5280;42.600;23.556;2023-04-27T11:44:04;93216.91;;;13.48;44.84
10466;BME280;5280;42.600;23.556;2023-04-27T11:46:32;93229.22;;;13.49;44.08
10466;BME280;5280;42.600;23.556;2023-04-27T11:49:01;93241.25;;;13.34;43.40
10466;BME280;5280;42.600;23.556;2023-04-27T11:51:29;93226.97;;;13.35;43.20
10466;BME280;5280;42.600;23.556;2023-04-27T11:54:00;93235.34;;;13.40;41.82
10466;BME280;5280;42.600;23.556;2023-04-27T11:56:35;93170.97;;;13.09;42.19
10466;BME280;5280;42.600;23.556;2023-04-27T11:59:02;93216.59;;;13.51;43.86
10466;BME280;5280;42.600;23.556;2023-04-27T12:01:30;93238.81;;;13.69;41.81
10466;BME280;5280;42.600;23.556;2023-04-27T12:03:58;93205.94;;;13.70;42.12
10466;BME280;5280;42.600;23.556;2023-04-27T12:06:26;93226.34;;;13.79;42.18
10466;BME280;5280;42.600;23.556;2023-04-27T12:08:53;93230.44;;;14.01;41.25
10466;BME280;5280;42.600;23.556;2023-04-27T12:11:22;93242.03;;;14.00;42.38
10466;BME280;5280;42.600;23.556;2023-04-27T12:13:50;93238.56;;;14.00;41.15
10466;BME280;5280;42.600;23.556;2023-04-27T12:16:17;93231.28;;;14.02;42.63
10466;BME280;5280;42.600;23.556;2023-04-27T12:18:46;93207.09;;;13.95;41.10
10466;BME280;5280;42.600;23.556;2023-04-27T12:21:12;93227.34;;;14.06;43.77
10466;BME280;5280;42.600;23.556;2023-04-27T12:23:40;93221.13;;;14.25;41.72
10466;BME280;5280;42.600;23.556;2023-04-27T12:26:07;93226.66;;;14.41;42.25
10466;BME280;5280;42.600;23.556;2023-04-27T12:28:33;93219.72;;;14.57;41.80
10466;BME280;5280;42.600;23.556;2023-04-27T12:31:03;93219.25;;;14.62;39.69
10466;BME280;5280;42.600;23.556;2023-04-27T12:33:31;93222.84;;;14.71;38.14
10466;BME280;5280;42.600;23.556;2023-04-27T12:35:57;93229.13;;;14.52;40.41
10466;BME280;5280;42.600;23.556;2023-04-27T12:38:25;93202.34;;;14.26;41.91
10466;BME280;5280;42.600;23.556;2023-04-27T12:40:52;93231.00;;;14.42;39.93
10466;BME280;5280;42.600;23.556;2023-04-27T12:43:20;93226.00;;;14.29;38.99
10466;BME280;5280;42.600;23.556;2023-04-27T12:45:46;93217.06;;;14.20;39.02
10466;BME280;5280;42.600;23.556;2023-04-27T12:48:15;93190.94;;;13.89;40.36
10466;BME280;5280;42.600;23.556;2023-04-27T12:50:41;93233.38;;;14.08;39.44
10466;BME280;5280;42.600;23.556;2023-04-27T12:53:08;93222.09;;;13.87;40.04
10466;BME280;5280;42.600;23.556;2023-04-27T12:55:35;93230.09;;;13.77;42.13
10466;BME280;5280;42.600;23.556;2023-04-27T12:58:02;93218.53;;;13.68;41.66
10466;BME280;5280;42.600;23.556;2023-04-27T13:00:31;93221.59;;;13.73;41.98
10466;BME280;5280;42.600;23.556;2023-04-27T13:02:58;93240.06;;;13.65;40.75
10466;BME280;5280;42.600;23.556;2023-04-27T13:05:26;93234.19;;;13.62;41.42
10466;BME280;5280;42.600;23.556;2023-04-27T13:07:53;93225.28;;;13.53;41.06
10466;BME280;5280;42.600;23.556;2023-04-27T13:10:20;93230.69;;;13.61;42.01